Time;durP1;ratioP1;P1;durP2;ratioP2;P2;SDS_P1;SDS_P2;PMS_P1;PMS_P2;Temp;Humidity;BMP_temperature;BMP_pressure;BME280_temperature;BME280_humidity;BME280_pressure;Samples;Min_cycle;Max_cycle;Signal;HPM_P1;HPM_P2
2021/08/28 00:00:58;;;;;;;3.10;2.77;;;22.80;74.30;;;;;;5058735;28;20523;-43
2021/08/28 00:03:32;;;;;;;3.87;2.80;;;22.80;73.60;;;;;;5058997;28;20554;-42
2021/08/28 00:06:03;;;;;;;3.30;3.00;;;22.70;75.30;;;;;;5044930;28;20458;-42
2021/08/28 00:08:34;;;;;;;3.07;2.87;;;22.80;74.40;;;;;;5037264;28;20445;-40
2021/08/28 00:11:05;;;;;;;3.20;2.93;;;22.80;74.20;;;;;;5045199;28;20445;-46
2021/08/28 00:13:36;;;;;;;3.73;3.30;;;22.80;73.00;;;;;;5062373;28;20452;-44
2021/08/28 00:16:12;;;;;;;3.00;2.70;;;22.60;73.90;;;;;;5059755;28;20435;-45
2021/08/28 00:18:45;;;;;;;3.67;2.80;;;22.60;75.10;;;;;;5043240;28;20434;-41
2021/08/28 00:21:16;;;;;;;3.60;3.30;;;22.60;74.70;;;;;;5049065;28;20867;-44
2021/08/28 00:23:50;;;;;;;3.33;3.10;;;22.50;74.10;;;;;;5061471;27;20427;-41
2021/08/28 00:26:21;;;;;;;3.17;2.70;;;22.40;75.90;;;;;;5047472;28;20469;-40
2021/08/28 00:28:52;;;;;;;3.20;2.77;;;22.30;76.00;;;;;;5042582;28;20450;-40
2021/08/28 00:31:24;;;;;;;3.13;2.83;;;22.30;75.80;;;;;;5046091;28;20497;-43
2021/08/28 00:33:57;;;;;;;3.83;2.93;;;22.30;76.70;;;;;;5037871;28;20452;-41
2021/08/28 00:36:28;;;;;;;4.70;2.90;;;22.20;77.10;;;;;;5026238;28;20477;-45
2021/08/28 00:39:00;;;;;;;3.17;2.80;;;22.10;77.20;;;;;;5042126;28;20438;-45
2021/08/28 00:41:31;;;;;;;3.43;2.93;;;22.10;78.10;;;;;;5057386;28;20479;-41
2021/08/28 00:44:02;;;;;;;3.47;3.17;;;22.00;78.90;;;;;;5061381;28;20458;-45
2021/08/28 00:46:33;;;;;;;4.23;2.93;;;22.10;77.70;;;;;;5062036;28;20423;-43
2021/08/28 00:49:06;;;;;;;2.93;2.70;;;22.00;78.60;;;;;;5061756;28;20468;-41
2021/08/28 00:51:39;;;;;;;2.57;2.37;;;21.90;78.10;;;;;;5045770;28;20432;-39
2021/08/28 00:54:10;;;;;;;2.80;2.60;;;21.80;80.00;;;;;;5025525;28;20472;-42
2021/08/28 00:56:41;;;;;;;3.23;2.93;;;21.70;81.10;;;;;;5041954;28;20461;-39
2021/08/28 00:59:12;;;;;;;3.20;2.90;;;21.70;81.50;;;;;;5042110;28;20476;-41
2021/08/28 01:01:46;;;;;;;4.30;2.53;;;21.70;80.90;;;;;;5058621;28;20473;-42
2021/08/28 01:04:22;;;;;;;2.70;2.50;;;21.70;79.60;;;;;;5061683;28;20439;-40
2021/08/28 01:07:03;;;;;;;2.53;2.30;;;21.60;80.20;;;;;;5056803;28;20423;-40
2021/08/28 01:09:36;;;;;;;3.30;2.17;;;21.60;80.80;;;;;;5061085;28;20478;-40
2021/08/28 01:12:13;;;;;;;3.37;2.50;;;21.70;80.70;;;;;;5042969;28;20457;-40
2021/08/28 01:14:47;;;;;;;3.13;2.73;;;21.70;80.10;;;;;;5048604;28;20445;-41
2021/08/28 01:17:20;;;;;;;3.10;2.90;;;21.60;81.30;;;;;;5061697;28;20499;-43
2021/08/28 01:20:05;;;;;;;3.23;3.03;;;21.50;79.90;;;;;;5061283;28;20452;-38
2021/08/28 01:22:38;;;;;;;2.87;2.57;;;21.50;79.20;;;;;;5060685;28;20499;-40
2021/08/28 01:25:11;;;;;;;3.23;2.90;;;21.50;79.70;;;;;;5061275;28;20817;-40
2021/08/28 01:27:49;;;;;;;3.37;2.90;;;21.40;80.50;;;;;;5060443;28;20497;-39
2021/08/28 01:30:23;;;;;;;5.03;2.87;;;21.30;81.40;;;;;;5053821;28;20415;-40
2021/08/28 01:32:54;;;;;;;3.17;2.67;;;21.30;81.60;;;;;;5046794;28;20877;-39
2021/08/28 01:35:26;;;;;;;3.70;2.60;;;21.30;82.10;;;;;;5041614;28;20424;-38
2021/08/28 01:37:59;;;;;;;4.77;3.60;;;21.20;82.50;;;;;;5056167;28;21201;-42
2021/08/28 01:40:31;;;;;;;3.27;2.60;;;21.10;82.40;;;;;;5060991;28;20453;-42
2021/08/28 01:43:03;;;;;;;3.60;3.30;;;21.10;83.30;;;;;;5053393;28;20493;-40
2021/08/28 01:45:36;;;;;;;2.80;2.60;;;21.10;84.00;;;;;;5041721;28;20425;-40
2021/08/28 01:48:08;;;;;;;4.70;2.77;;;21.20;83.40;;;;;;5057012;28;20908;-40
2021/08/28 01:50:39;;;;;;;3.30;3.00;;;21.10;83.90;;;;;;5028162;28;20456;-39
2021/08/28 01:53:11;;;;;;;3.17;2.77;;;21.10;83.30;;;;;;5059921;28;20457;-40
2021/08/28 01:55:43;;;;;;;2.90;2.47;;;21.00;83.70;;;;;;5050522;28;20841;-44
2021/08/28 01:58:15;;;;;;;3.10;2.73;;;20.90;84.90;;;;;;5056393;28;20497;-44
2021/08/28 02:00:47;;;;;;;3.43;2.63;;;20.90;85.30;;;;;;5025756;28;20417;-42
2021/08/28 02:03:19;;;;;;;4.03;3.03;;;20.90;85.00;;;;;;5040515;28;20485;-43
2021/08/28 02:05:55;;;;;;;3.63;2.90;;;20.80;85.60;;;;;;5040858;28;20439;-42
2021/08/28 02:08:33;;;;;;;6.20;2.97;;;20.80;86.30;;;;;;5040183;28;20428;-48
2021/08/28 02:11:11;;;;;;;2.70;2.47;;;20.70;86.50;;;;;;5045319;28;20766;-44
2021/08/28 02:13:45;;;;;;;3.87;3.47;;;20.70;86.50;;;;;;5060280;28;20456;-46
2021/08/28 02:16:23;;;;;;;3.40;3.00;;;20.60;87.10;;;;;;5060782;28;20522;-42
2021/08/28 02:18:58;;;;;;;5.90;3.43;;;20.50;87.80;;;;;;5024978;28;20417;-42
2021/08/28 02:21:51;;;;;;;3.30;2.63;;;20.50;88.30;;;;;;5040636;28;20485;-44
2021/08/28 02:24:24;;;;;;;5.40;3.50;;;20.50;87.80;;;;;;5039934;28;20477;-42
2021/08/28 02:27:02;;;;;;;3.90;3.13;;;20.30;88.90;;;;;;5053976;28;20487;-44
2021/08/28 02:29:37;;;;;;;3.10;2.80;;;20.20;89.70;;;;;;5029025;28;20502;-46
2021/08/28 02:32:10;;;;;;;3.83;2.77;;;20.20;88.60;;;;;;5055898;28;20531;-49
2021/08/28 02:34:42;;;;;;;2.80;2.60;;;20.20;88.90;;;;;;5058327;28;20544;-40
2021/08/28 02:37:16;;;;;;;3.10;2.80;;;20.10;90.00;;;;;;5060257;28;20419;-40
2021/08/28 02:39:48;;;;;;;5.23;2.90;;;19.90;90.10;;;;;;5058062;28;20464;-40
2021/08/28 02:42:20;;;;;;;3.50;3.20;;;19.90;90.30;;;;;;5058108;28;20548;-40
2021/08/28 02:44:51;;;;;;;4.33;2.90;;;19.90;90.20;;;;;;5059318;28;20460;-48
2021/08/28 02:47:24;;;;;;;3.33;3.00;;;19.90;90.00;;;;;;5060025;28;20942;-40
2021/08/28 02:49:58;;;;;;;3.40;3.07;;;19.80;90.30;;;;;;5059526;28;20500;-43
2021/08/28 02:52:31;;;;;;;3.03;2.73;;;19.70;90.50;;;;;;5043498;28;20423;-44
2021/08/28 02:55:04;;;;;;;3.40;3.10;;;19.70;90.70;;;;;;5053390;28;20468;-39
2021/08/28 02:57:36;;;;;;;3.07;2.80;;;19.70;90.70;;;;;;5039920;28;20449;-40
2021/08/28 03:00:09;;;;;;;3.23;2.80;;;19.70;91.40;;;;;;5050132;28;20438;-42
2021/08/28 03:02:42;;;;;;;3.47;3.17;;;19.60;90.80;;;;;;5042860;28;20481;-43
2021/08/28 03:05:15;;;;;;;3.50;3.20;;;19.60;91.00;;;;;;5024759;28;20962;-42
2021/08/28 03:07:47;;;;;;;3.40;2.60;;;19.50;91.10;;;;;;5047873;28;20453;-46
2021/08/28 03:10:19;;;;;;;5.70;3.37;;;19.40;91.40;;;;;;5059695;28;20467;-39
2021/08/28 03:12:51;;;;;;;3.30;3.00;;;19.40;91.70;;;;;;5037543;28;20453;-39
2021/08/28 03:15:22;;;;;;;4.70;3.60;;;19.30;91.90;;;;;;5059209;28;20485;-40
2021/08/28 03:17:55;;;;;;;3.13;2.83;;;19.30;92.10;;;;;;5059302;28;20460;-44
2021/08/28 03:20:28;;;;;;;3.83;3.00;;;19.20;92.40;;;;;;5059353;28;20480;-39
2021/08/28 03:23:01;;;;;;;3.20;2.90;;;19.20;92.60;;;;;;5042663;28;20870;-45
2021/08/28 03:25:34;;;;;;;3.70;2.90;;;19.20;92.50;;;;;;5059256;28;20452;-39
2021/08/28 03:28:06;;;;;;;3.10;2.90;;;19.20;92.90;;;;;;5045155;28;20473;-39
2021/08/28 03:30:38;;;;;;;3.63;3.30;;;19.00;93.50;;;;;;5041468;28;20428;-42
2021/08/28 03:33:13;;;;;;;4.17;3.40;;;18.80;93.60;;;;;;5055205;28;20524;-42
2021/08/28 03:35:47;;;;;;;3.70;3.30;;;18.80;94.20;;;;;;5046510;28;20493;-43
2021/08/28 03:38:19;;;;;;;3.90;3.60;;;18.70;94.40;;;;;;5058655;28;20521;-48
2021/08/28 03:40:50;;;;;;;5.47;3.60;;;18.60;94.80;;;;;;5059574;28;20445;-45
2021/08/28 03:43:21;;;;;;;2.97;2.77;;;18.60;94.60;;;;;;5055564;28;20485;-42
2021/08/28 03:45:53;;;;;;;3.70;3.30;;;18.60;94.90;;;;;;5039675;28;20461;-45
2021/08/28 03:48:26;;;;;;;4.03;3.63;;;18.40;95.50;;;;;;5042897;28;20458;-46
2021/08/28 03:50:58;;;;;;;3.50;3.20;;;18.30;95.80;;;;;;5051044;27;20472;-40
2021/08/28 03:53:29;;;;;;;3.77;3.47;;;18.30;96.00;;;;;;5053175;28;20449;-46
2021/08/28 03:56:00;;;;;;;3.60;3.07;;;18.20;96.70;;;;;;5042296;28;20432;-42
2021/08/28 03:58:31;;;;;;;4.80;3.50;;;18.10;96.80;;;;;;5042772;28;20967;-42
2021/08/28 04:01:03;;;;;;;3.87;3.57;;;18.00;97.20;;;;;;5026904;28;20971;-46
2021/08/28 04:03:36;;;;;;;4.07;3.23;;;18.00;97.20;;;;;;5042757;28;20492;-44
2021/08/28 04:06:07;;;;;;;4.57;2.97;;;18.00;97.40;;;;;;5057913;28;20515;-45
2021/08/28 04:08:38;;;;;;;3.27;2.73;;;18.00;97.50;;;;;;5062038;28;20479;-45
2021/08/28 04:11:09;;;;;;;3.70;3.17;;;18.00;97.90;;;;;;5029884;28;20434;-44
2021/08/28 04:13:40;;;;;;;4.40;3.87;;;17.90;98.30;;;;;;5054165;28;20470;-44
2021/08/28 04:16:11;;;;;;;3.47;3.10;;;17.80;98.70;;;;;;5054372;28;20448;-46
2021/08/28 04:18:44;;;;;;;3.93;3.57;;;17.70;99.10;;;;;;5062099;28;20460;-42
2021/08/28 04:21:16;;;;;;;4.10;3.33;;;17.60;99.90;;;;;;5026703;28;20484;-43
2021/08/28 04:23:47;;;;;;;4.17;3.67;;;17.60;99.90;;;;;;5049344;28;20521;-42
2021/08/28 04:26:19;;;;;;;4.73;3.33;;;17.50;99.90;;;;;;5049302;28;20457;-41
2021/08/28 04:28:50;;;;;;;3.50;3.10;;;17.40;99.90;;;;;;5040490;28;20457;-42
2021/08/28 04:31:21;;;;;;;3.93;3.63;;;17.30;99.90;;;;;;5026782;28;20493;-43
2021/08/28 04:33:54;;;;;;;4.83;3.47;;;17.20;99.90;;;;;;5060726;28;20463;-42
2021/08/28 04:36:25;;;;;;;3.70;3.40;;;17.10;99.90;;;;;;5061679;28;20474;-43
2021/08/28 04:38:56;;;;;;;4.57;3.33;;;17.10;99.90;;;;;;5044629;28;20533;-40
2021/08/28 04:41:28;;;;;;;3.90;3.53;;;17.00;99.90;;;;;;5042026;28;20564;-41
2021/08/28 04:43:59;;;;;;;4.10;3.70;;;17.00;99.90;;;;;;5042118;28;20969;-42
2021/08/28 04:46:30;;;;;;;4.13;3.77;;;17.00;99.90;;;;;;5041890;28;21008;-42
2021/08/28 04:49:02;;;;;;;4.93;4.50;;;16.90;99.90;;;;;;5042158;28;20476;-42
2021/08/28 04:51:34;;;;;;;5.70;4.97;;;16.90;99.90;;;;;;5042233;28;20491;-39
2021/08/28 04:54:05;;;;;;;7.77;5.87;;;16.80;99.90;;;;;;5059040;28;20448;-43
2021/08/28 04:56:36;;;;;;;5.33;4.80;;;16.70;99.90;;;;;;5040710;28;20509;-40
2021/08/28 04:59:07;;;;;;;6.00;5.10;;;16.70;99.90;;;;;;5041852;28;20452;-46
2021/08/28 05:01:41;;;;;;;4.23;3.83;;;16.70;99.90;;;;;;5041891;28;20506;-45
2021/08/28 05:04:14;;;;;;;5.40;4.00;;;16.70;99.90;;;;;;5060169;28;21033;-42
2021/08/28 05:06:45;;;;;;;7.30;4.13;;;16.70;99.90;;;;;;5061253;28;20449;-38
2021/08/28 05:09:16;;;;;;;3.80;3.30;;;16.70;99.90;;;;;;5050596;28;20509;-41
2021/08/28 05:11:47;;;;;;;2.87;2.60;;;16.70;99.90;;;;;;5041529;28;20457;-43
2021/08/28 05:14:23;;;;;;;3.60;3.30;;;16.80;99.90;;;;;;5046398;28;20527;-42
2021/08/28 05:16:54;;;;;;;3.60;3.30;;;16.80;99.90;;;;;;5061175;28;20482;-41
2021/08/28 05:19:27;;;;;;;4.30;3.47;;;16.90;99.90;;;;;;5059230;28;20449;-45
2021/08/28 05:21:58;;;;;;;4.33;3.93;;;16.80;99.90;;;;;;5061294;28;20484;-40
2021/08/28 05:24:34;;;;;;;3.40;3.03;;;16.80;99.90;;;;;;5025177;28;20461;-44
2021/08/28 05:27:06;;;;;;;3.40;3.10;;;16.80;99.90;;;;;;5042906;28;20458;-43
2021/08/28 05:29:37;;;;;;;5.67;3.27;;;16.70;99.90;;;;;;5048621;28;20461;-40
2021/08/28 05:32:08;;;;;;;5.20;3.53;;;16.80;99.90;;;;;;5060734;28;20505;-46
2021/08/28 05:34:41;;;;;;;4.87;3.40;;;16.80;99.90;;;;;;5060757;28;20445;-45
2021/08/28 05:37:12;;;;;;;4.80;3.60;;;16.70;99.90;;;;;;5059163;28;20448;-43
2021/08/28 05:39:43;;;;;;;3.50;3.20;;;16.70;99.90;;;;;;5045495;28;20529;-39
2021/08/28 05:42:14;;;;;;;4.03;3.30;;;16.70;99.90;;;;;;5040909;28;20454;-41
2021/08/28 05:44:45;;;;;;;4.13;3.60;;;16.60;99.90;;;;;;5040985;28;20568;-43
2021/08/28 05:47:16;;;;;;;4.43;3.60;;;16.60;99.90;;;;;;5042092;28;20511;-45
2021/08/28 05:49:49;;;;;;;3.73;3.43;;;16.60;99.90;;;;;;5055115;28;20452;-44
2021/08/28 05:52:20;;;;;;;3.73;3.43;;;16.60;99.90;;;;;;5060533;28;20440;-38
2021/08/28 05:54:51;;;;;;;8.37;3.93;;;16.50;99.90;;;;;;5057158;28;20446;-40
2021/08/28 05:57:23;;;;;;;3.63;3.30;;;16.50;99.90;;;;;;5040684;28;20449;-40
2021/08/28 05:59:54;;;;;;;3.10;2.90;;;16.40;99.90;;;;;;5041081;28;20445;-40
2021/08/28 06:02:25;;;;;;;4.33;3.50;;;16.40;99.90;;;;;;5040951;28;20442;-43
2021/08/28 06:04:58;;;;;;;5.83;3.50;;;16.40;99.90;;;;;;5040848;28;20565;-42
2021/08/28 06:07:29;;;;;;;5.40;3.40;;;16.40;99.90;;;;;;5040796;28;20441;-42
2021/08/28 06:10:00;;;;;;;4.33;3.10;;;16.30;99.90;;;;;;5039876;28;20449;-42
2021/08/28 06:12:31;;;;;;;9.27;4.10;;;16.20;99.90;;;;;;5040552;28;20471;-46
2021/08/28 06:15:05;;;;;;;4.33;3.20;;;16.30;99.90;;;;;;5041019;28;20449;-39
2021/08/28 06:17:36;;;;;;;4.93;4.13;;;16.20;99.90;;;;;;5040461;28;20449;-42
2021/08/28 06:20:11;;;;;;;3.03;2.70;;;16.20;99.90;;;;;;5040690;28;20581;-39
2021/08/28 06:22:42;;;;;;;4.47;3.50;;;16.20;99.90;;;;;;5040142;28;20437;-40
2021/08/28 06:25:13;;;;;;;3.93;3.53;;;16.10;99.90;;;;;;5040601;28;20534;-40
2021/08/28 06:27:45;;;;;;;4.33;3.60;;;16.10;99.90;;;;;;5030434;28;20511;-41
2021/08/28 06:30:16;;;;;;;3.97;3.57;;;16.00;99.90;;;;;;5020813;28;20777;-41
2021/08/28 06:32:47;;;;;;;4.63;3.37;;;16.00;99.90;;;;;;5020501;28;20849;-40
2021/08/28 06:35:20;;;;;;;3.83;3.50;;;16.00;99.90;;;;;;5020749;28;20450;-42
2021/08/28 06:37:51;;;;;;;4.33;3.80;;;15.90;99.90;;;;;;5019612;28;20788;-41
2021/08/28 06:40:22;;;;;;;4.10;3.60;;;15.90;99.90;;;;;;5021053;28;20435;-40
2021/08/28 06:42:54;;;;;;;4.00;3.67;;;15.90;99.90;;;;;;5020035;28;20511;-39
2021/08/28 06:45:25;;;;;;;4.13;3.33;;;15.90;99.90;;;;;;5020486;28;20610;-40
2021/08/28 06:47:56;;;;;;;4.30;3.63;;;16.00;99.90;;;;;;5019955;28;20841;-43
2021/08/28 06:50:29;;;;;;;6.70;3.80;;;16.00;99.90;;;;;;5020434;28;20510;-41
2021/08/28 06:53:00;;;;;;;4.90;4.40;;;15.90;99.90;;;;;;5019777;28;20447;-39
2021/08/28 06:55:31;;;;;;;3.83;3.20;;;15.80;99.90;;;;;;5029086;28;20459;-39
2021/08/28 06:58:02;;;;;;;4.10;3.70;;;15.80;99.90;;;;;;5039396;28;20824;-40
2021/08/28 07:00:33;;;;;;;4.07;3.30;;;15.80;99.90;;;;;;5040349;28;20445;-42
2021/08/28 07:03:05;;;;;;;3.57;3.27;;;15.80;99.90;;;;;;5040001;28;20445;-41
2021/08/28 07:05:38;;;;;;;4.30;3.90;;;15.80;99.90;;;;;;5040193;28;20489;-38
2021/08/28 07:08:09;;;;;;;4.50;3.90;;;15.70;99.90;;;;;;5039254;28;20445;-38
2021/08/28 07:10:40;;;;;;;4.37;3.47;;;15.70;99.90;;;;;;5040416;28;20498;-42
2021/08/28 07:13:11;;;;;;;4.97;3.77;;;15.60;99.90;;;;;;5039555;28;20474;-41
2021/08/28 07:15:42;;;;;;;4.30;3.53;;;15.60;99.90;;;;;;5039982;28;20450;-42
2021/08/28 07:18:14;;;;;;;5.23;3.73;;;15.50;99.90;;;;;;5039790;28;20492;-42
2021/08/28 07:21:07;;;;;;;4.30;3.90;;;15.40;99.90;;;;;;5039575;28;20487;-42
2021/08/28 07:23:38;;;;;;;5.30;3.70;;;15.50;99.90;;;;;;5039223;28;20437;-41
2021/08/28 07:26:09;;;;;;;3.97;3.67;;;15.50;99.90;;;;;;5039618;28;20477;-39
2021/08/28 07:28:40;;;;;;;6.00;4.43;;;15.50;99.90;;;;;;5039490;28;20964;-42
2021/08/28 07:31:11;;;;;;;5.00;4.57;;;15.50;99.90;;;;;;5039825;28;20461;-40
2021/08/28 07:33:42;;;;;;;5.43;4.17;;;15.40;99.90;;;;;;5039707;28;20457;-41
2021/08/28 07:36:15;;;;;;;5.10;4.60;;;15.40;99.90;;;;;;5039761;28;20790;-39
2021/08/28 07:38:46;;;;;;;5.00;4.30;;;15.40;99.90;;;;;;5039156;28;20846;-41
2021/08/28 07:41:17;;;;;;;4.80;3.97;;;15.40;99.90;;;;;;5039771;28;20438;-42
2021/08/28 07:43:48;;;;;;;5.17;4.67;;;15.40;99.90;;;;;;5039565;28;20449;-46
2021/08/28 07:46:19;;;;;;;5.07;3.80;;;15.30;99.90;;;;;;5039522;28;20489;-42
2021/08/28 07:48:51;;;;;;;4.17;3.37;;;15.30;99.90;;;;;;5039231;28;20449;-45
2021/08/28 07:51:23;;;;;;;8.97;3.70;;;15.30;99.90;;;;;;5039525;28;20457;-41
2021/08/28 07:53:55;;;;;;;5.70;4.43;;;15.30;99.90;;;;;;5038986;28;20460;-42
2021/08/28 07:56:26;;;;;;;4.50;3.53;;;15.30;99.90;;;;;;5039272;28;20437;-41
2021/08/28 07:58:57;;;;;;;4.47;3.73;;;15.20;99.90;;;;;;5039127;28;20515;-41
2021/08/28 08:01:28;;;;;;;4.70;3.57;;;15.20;99.90;;;;;;5039471;28;20454;-39
2021/08/28 08:03:59;;;;;;;4.00;3.70;;;15.10;99.90;;;;;;5039295;28;20518;-41
2021/08/28 08:06:32;;;;;;;3.73;3.30;;;15.10;99.90;;;;;;5039442;28;20496;-39
2021/08/28 08:09:04;;;;;;;4.70;3.90;;;15.00;99.90;;;;;;5038923;28;20832;-43
2021/08/28 08:11:35;;;;;;;4.27;3.40;;;15.00;99.90;;;;;;5039520;28;20445;-41
2021/08/28 08:14:06;;;;;;;4.13;3.70;;;15.10;99.90;;;;;;5039059;28;20450;-41
2021/08/28 08:16:37;;;;;;;3.20;3.00;;;15.00;99.90;;;;;;5039201;28;20441;-39
2021/08/28 08:19:09;;;;;;;4.07;3.40;;;15.00;99.90;;;;;;5038939;28;20449;-40
2021/08/28 08:21:42;;;;;;;3.60;3.27;;;15.00;99.90;;;;;;5038931;28;20469;-39
2021/08/28 08:24:13;;;;;;;6.90;3.83;;;14.90;99.90;;;;;;5038466;28;20449;-41
2021/08/28 08:26:44;;;;;;;4.17;3.50;;;14.90;99.90;;;;;;5037696;28;20484;-38
2021/08/28 08:29:15;;;;;;;4.93;3.97;;;14.90;99.90;;;;;;5018982;28;20470;-39
2021/08/28 08:31:46;;;;;;;5.23;3.37;;;14.80;99.90;;;;;;5019707;28;20450;-42
2021/08/28 08:34:17;;;;;;;4.90;4.07;;;14.80;99.90;;;;;;5022334;28;20450;-40
2021/08/28 08:36:51;;;;;;;4.03;3.73;;;14.70;99.90;;;;;;5022456;28;20450;-42
2021/08/28 08:39:22;;;;;;;4.37;3.97;;;14.70;99.90;;;;;;5021804;28;20453;-37
2021/08/28 08:41:53;;;;;;;4.20;3.70;;;14.70;99.90;;;;;;5022795;28;20468;-39
2021/08/28 08:44:25;;;;;;;4.00;3.60;;;14.70;99.90;;;;;;5022506;28;20458;-40
2021/08/28 08:46:57;;;;;;;6.30;3.90;;;14.60;99.90;;;;;;5022584;28;20539;-40
2021/08/28 08:49:29;;;;;;;5.10;4.07;;;14.50;99.90;;;;;;5021961;28;20879;-43
2021/08/28 08:52:03;;;;;;;6.10;4.03;;;14.50;99.90;;;;;;5022205;28;20450;-39
2021/08/28 08:54:37;;;;;;;6.50;3.40;;;14.50;99.90;;;;;;5022740;28;20487;-40
2021/08/28 08:57:09;;;;;;;3.73;3.33;;;14.40;99.90;;;;;;5042346;28;21057;-39
2021/08/28 08:59:41;;;;;;;5.50;4.03;;;14.30;99.90;;;;;;5042044;28;20445;-39
2021/08/28 09:02:12;;;;;;;3.33;3.00;;;14.30;99.90;;;;;;5041879;28;20450;-40
2021/08/28 09:04:44;;;;;;;4.40;4.00;;;14.20;99.90;;;;;;5041674;28;20472;-41
2021/08/28 09:07:17;;;;;;;5.47;4.03;;;14.20;99.90;;;;;;5042072;28;20499;-39
2021/08/28 09:09:48;;;;;;;4.53;3.60;;;14.20;99.90;;;;;;5041189;28;20445;-40
2021/08/28 09:12:19;;;;;;;4.30;3.00;;;14.10;99.90;;;;;;5041876;28;20552;-41
2021/08/28 09:14:58;;;;;;;4.10;3.80;;;14.10;99.90;;;;;;5041790;28;20460;-38
2021/08/28 09:17:29;;;;;;;4.10;3.67;;;14.00;99.90;;;;;;5041802;28;20457;-38
2021/08/28 09:20:01;;;;;;;8.00;4.27;;;14.10;99.90;;;;;;5041602;28;20446;-39
2021/08/28 09:22:37;;;;;;;4.43;3.70;;;14.00;99.90;;;;;;5041627;28;20522;-38
2021/08/28 09:25:10;;;;;;;4.37;3.97;;;14.00;99.90;;;;;;5041847;28;20963;-39
2021/08/28 09:27:42;;;;;;;7.03;3.90;;;14.00;99.90;;;;;;5032507;28;20581;-40
2021/08/28 09:30:23;;;;;;;3.93;3.53;;;14.00;99.90;;;;;;5021792;28;20508;-40
2021/08/28 09:32:56;;;;;;;6.07;3.97;;;13.90;99.90;;;;;;5021797;28;20511;-38
2021/08/28 09:35:28;;;;;;;4.67;4.27;;;13.90;99.90;;;;;;5021837;28;20480;-39
2021/08/28 09:38:03;;;;;;;5.43;4.30;;;13.90;99.90;;;;;;5021118;28;20462;-39
2021/08/28 09:40:35;;;;;;;6.90;3.70;;;13.80;99.90;;;;;;5021689;28;20920;-38
2021/08/28 09:43:08;;;;;;;5.40;3.70;;;13.80;99.90;;;;;;5021459;28;20472;-38
2021/08/28 09:45:40;;;;;;;5.90;4.30;;;13.80;99.90;;;;;;5022034;28;20578;-38
2021/08/28 09:48:12;;;;;;;5.63;3.90;;;13.70;99.90;;;;;;5021544;28;20515;-38
2021/08/28 09:50:46;;;;;;;4.33;3.60;;;13.70;99.90;;;;;;5021498;28;20459;-38
2021/08/28 09:53:40;;;;;;;4.63;4.20;;;13.70;99.90;;;;;;5021018;28;20451;-39
2021/08/28 09:56:11;;;;;;;6.93;4.10;;;13.70;99.90;;;;;;5034955;28;20453;-40
2021/08/28 09:58:43;;;;;;;4.07;3.70;;;13.70;99.90;;;;;;5041165;28;20482;-38
2021/08/28 10:01:14;;;;;;;3.50;3.20;;;13.70;99.90;;;;;;5041233;28;20449;-38
2021/08/28 10:03:59;;;;;;;3.97;3.57;;;13.70;99.90;;;;;;5041508;28;20449;-39
2021/08/28 10:06:32;;;;;;;4.90;4.40;;;13.60;99.90;;;;;;5041147;28;20493;-38
2021/08/28 10:09:05;;;;;;;4.90;3.43;;;13.60;99.90;;;;;;5040683;28;20449;-38
2021/08/28 10:11:37;;;;;;;5.50;4.40;;;13.60;99.90;;;;;;5041041;28;20456;-37
2021/08/28 10:14:08;;;;;;;4.97;4.30;;;13.60;99.90;;;;;;5041296;28;20475;-38
2021/08/28 10:16:39;;;;;;;6.90;4.40;;;13.50;99.90;;;;;;5041313;28;20448;-36
2021/08/28 10:19:12;;;;;;;5.57;4.43;;;13.50;99.90;;;;;;5041700;28;20430;-37
2021/08/28 10:21:46;;;;;;;5.27;3.80;;;13.50;99.90;;;;;;5040972;28;20473;-37
2021/08/28 10:24:19;;;;;;;5.53;4.70;;;13.40;99.90;;;;;;5040478;28;20445;-38
2021/08/28 10:26:51;;;;;;;4.53;4.03;;;13.50;99.90;;;;;;5038703;28;20493;-36
2021/08/28 10:29:23;;;;;;;6.50;4.80;;;13.40;99.90;;;;;;5021168;28;20479;-37
2021/08/28 10:31:54;;;;;;;7.37;4.60;;;13.30;99.90;;;;;;5020855;28;20438;-38
2021/08/28 10:34:25;;;;;;;5.73;4.60;;;13.30;99.90;;;;;;5021396;28;20437;-37
2021/08/28 10:36:57;;;;;;;5.27;4.27;;;13.30;99.90;;;;;;5021141;28;20480;-36
2021/08/28 10:39:30;;;;;;;5.23;4.73;;;13.30;99.90;;;;;;5020546;28;20446;-37
2021/08/28 10:42:02;;;;;;;4.97;4.47;;;13.30;99.90;;;;;;5020522;28;20454;-36
2021/08/28 10:44:33;;;;;;;8.43;5.87;;;13.20;99.90;;;;;;5020951;28;20454;-37
2021/08/28 10:47:07;;;;;;;7.63;4.70;;;13.20;99.90;;;;;;5020756;28;20489;-37
2021/08/28 10:49:43;;;;;;;4.60;4.20;;;13.20;99.90;;;;;;5021164;28;20465;-38
2021/08/28 10:52:19;;;;;;;5.33;4.37;;;13.20;99.90;;;;;;5021070;28;20570;-38
2021/08/28 10:54:58;;;;;;;6.30;5.40;;;13.20;99.90;;;;;;5022138;28;20494;-38
2021/08/28 10:57:29;;;;;;;5.37;4.67;;;13.20;99.90;;;;;;5040608;28;20494;-38
2021/08/28 11:00:02;;;;;;;5.63;4.87;;;13.20;99.90;;;;;;5040367;28;20476;-38
2021/08/28 11:02:55;;;;;;;7.97;5.30;;;13.20;99.90;;;;;;5040487;28;20442;-40
2021/08/28 11:05:29;;;;;;;9.20;4.53;;;13.30;99.90;;;;;;5040589;28;20837;-38
2021/08/28 11:08:00;;;;;;;8.87;5.63;;;13.20;99.90;;;;;;5039987;28;20510;-38
2021/08/28 11:10:33;;;;;;;7.30;4.97;;;13.20;99.90;;;;;;5040507;28;20474;-38
2021/08/28 11:13:05;;;;;;;8.40;5.47;;;13.20;99.90;;;;;;5039996;28;20453;-38
2021/08/28 11:15:54;;;;;;;7.37;5.07;;;13.20;99.90;;;;;;5040601;28;20498;-38
2021/08/28 11:18:46;;;;;;;6.20;5.50;;;13.20;99.90;;;;;;5040384;28;20809;-37
2021/08/28 11:21:17;;;;;;;5.80;4.87;;;13.20;99.90;;;;;;5039794;28;20498;-37
2021/08/28 11:23:53;;;;;;;9.63;5.17;;;13.20;99.90;;;;;;5040132;28;20438;-37
2021/08/28 11:26:38;;;;;;;7.30;4.90;;;13.20;99.90;;;;;;5040472;28;20486;-39
2021/08/28 11:29:23;;;;;;;5.40;4.90;;;13.20;99.90;;;;;;5040680;28;20455;-38
2021/08/28 11:32:11;;;;;;;6.03;5.30;;;13.20;99.90;;;;;;5040474;28;20505;-38
2021/08/28 11:34:43;;;;;;;7.73;4.80;;;13.10;99.90;;;;;;5039986;28;20449;-39
2021/08/28 11:37:44;;;;;;;5.97;4.97;;;13.00;99.90;;;;;;5040412;28;20453;-40
2021/08/28 11:40:35;;;;;;;6.20;5.37;;;13.00;99.90;;;;;;5101048;28;20987;-39
2021/08/28 11:43:09;;;;;;;6.00;5.13;;;13.00;99.90;;;;;;5100595;28;20480;-38
2021/08/28 11:45:41;;;;;;;4.80;4.20;;;12.90;99.90;;;;;;5100889;28;20446;-36
2021/08/28 11:48:14;;;;;;;5.43;4.50;;;12.90;99.90;;;;;;5100725;28;20485;-37
2021/08/28 11:50:46;;;;;;;5.67;4.30;;;12.80;99.90;;;;;;5100907;28;20427;-38
2021/08/28 11:53:25;;;;;;;5.70;5.07;;;12.80;99.90;;;;;;5100156;28;20492;-38
2021/08/28 11:56:07;;;;;;;6.60;5.80;;;12.70;99.90;;;;;;5099946;28;20511;-38
2021/08/28 11:58:57;;;;;;;5.13;4.60;;;12.70;99.90;;;;;;5100669;28;20450;-38
2021/08/28 12:01:36;;;;;;;7.30;5.30;;;12.70;99.90;;;;;;5100730;28;20469;-37
2021/08/28 12:04:09;;;;;;;7.67;5.30;;;12.60;99.90;;;;;;5100397;28;20447;-38
2021/08/28 12:06:41;;;;;;;5.73;4.90;;;12.60;99.90;;;;;;5100545;28;20523;-37
2021/08/28 12:09:13;;;;;;;6.37;5.13;;;12.50;99.90;;;;;;5103589;28;20534;-37
2021/08/28 12:11:48;;;;;;;5.90;4.67;;;12.50;99.90;;;;;;5104016;28;20472;-37
2021/08/28 12:14:22;;;;;;;6.03;5.03;;;12.50;99.90;;;;;;5076620;28;20445;-37
2021/08/28 12:16:53;;;;;;;5.73;5.03;;;12.50;99.90;;;;;;5042640;28;20521;-34
2021/08/28 12:19:26;;;;;;;9.43;5.60;;;12.60;99.90;;;;;;5043127;28;20465;-36
2021/08/28 12:21:59;;;;;;;5.60;5.07;;;12.50;99.90;;;;;;5042717;28;20492;-36
2021/08/28 12:24:31;;;;;;;5.80;5.27;;;12.60;99.90;;;;;;5041861;28;20478;-37
2021/08/28 12:27:05;;;;;;;6.33;5.10;;;12.50;99.90;;;;;;5038448;28;20571;-36
2021/08/28 12:29:39;;;;;;;6.50;5.03;;;12.50;99.90;;;;;;5022754;28;20515;-36
2021/08/28 12:32:12;;;;;;;5.47;4.97;;;12.40;99.90;;;;;;5023067;28;20544;-36
2021/08/28 12:34:45;;;;;;;7.10;5.10;;;12.40;99.90;;;;;;5022912;28;20457;-37
2021/08/28 12:37:17;;;;;;;5.90;4.10;;;12.40;99.90;;;;;;5022376;28;20454;-36
2021/08/28 12:39:53;;;;;;;6.67;5.60;;;12.30;99.90;;;;;;5022149;28;20457;-37
2021/08/28 12:42:25;;;;;;;5.80;5.07;;;12.40;99.90;;;;;;5022347;28;20450;-36
2021/08/28 12:45:00;;;;;;;5.87;4.83;;;12.40;99.90;;;;;;5022448;28;21004;-37
2021/08/28 12:47:35;;;;;;;7.10;5.23;;;12.30;99.90;;;;;;5022299;28;20445;-37
2021/08/28 12:50:09;;;;;;;7.00;4.53;;;12.30;99.90;;;;;;5022813;28;20433;-36
2021/08/28 12:52:42;;;;;;;7.53;5.30;;;12.30;99.90;;;;;;5021521;28;20457;-36
2021/08/28 12:55:24;;;;;;;6.20;5.30;;;12.30;99.90;;;;;;5028320;28;20471;-37
2021/08/28 12:57:56;;;;;;;7.83;4.80;;;12.30;99.90;;;;;;5041673;28;20453;-35
2021/08/28 13:00:32;;;;;;;6.00;5.07;;;12.20;99.90;;;;;;5042083;28;20449;-37
2021/08/28 13:03:03;;;;;;;6.20;5.10;;;12.20;99.90;;;;;;5042024;28;20964;-37
2021/08/28 13:05:35;;;;;;;7.87;5.33;;;12.20;99.90;;;;;;5041686;28;20447;-37
2021/08/28 13:08:07;;;;;;;6.57;5.40;;;12.10;99.90;;;;;;5041233;28;20469;-37
2021/08/28 13:10:38;;;;;;;7.23;5.37;;;12.10;99.90;;;;;;5042164;28;20450;-36
2021/08/28 13:13:09;;;;;;;6.07;5.43;;;12.10;99.90;;;;;;5041631;28;20449;-36
2021/08/28 13:15:44;;;;;;;6.00;4.80;;;12.00;99.90;;;;;;5041959;28;20449;-36
2021/08/28 13:18:18;;;;;;;6.97;5.40;;;12.10;99.90;;;;;;5041287;28;20479;-37